sensor_id;sensor_type;location;lat;lon;timestamp;temperature;humidity
61153;DHT22;47030;50.732;4.286;2022-08-19T00:00:00;18.30;99.10
61153;DHT22;47030;50.732;4.286;2022-08-19T00:02:26;18.20;99.30
61153;DHT22;47030;50.732;4.286;2022-08-19T00:04:52;18.30;99.30
61153;DHT22;47030;50.732;4.286;2022-08-19T00:07:20;18.30;99.30
61153;DHT22;47030;50.732;4.286;2022-08-19T00:09:46;18.30;99.10
61153;DHT22;47030;50.732;4.286;2022-08-19T00:12:13;18.30;99.10
61153;DHT22;47030;50.732;4.286;2022-08-19T00:14:39;18.30;98.90
61153;DHT22;47030;50.732;4.286;2022-08-19T00:17:07;18.30;98.80
61153;DHT22;47030;50.732;4.286;2022-08-19T00:19:34;18.40;98.60
61153;DHT22;47030;50.732;4.286;2022-08-19T00:22:00;18.50;98.50
61153;DHT22;47030;50.732;4.286;2022-08-19T00:24:27;18.40;98.40
61153;DHT22;47030;50.732;4.286;2022-08-19T00:26:54;18.50;98.30
61153;DHT22;47030;50.732;4.286;2022-08-19T00:29:21;18.50;98.40
61153;DHT22;47030;50.732;4.286;2022-08-19T00:31:48;18.40;98.60
61153;DHT22;47030;50.732;4.286;2022-08-19T00:34:15;18.30;98.90
61153;DHT22;47030;50.732;4.286;2022-08-19T00:36:42;18.30;99.10
61153;DHT22;47030;50.732;4.286;2022-08-19T00:39:08;18.30;99.20
61153;DHT22;47030;50.732;4.286;2022-08-19T00:41:35;18.30;99.20
61153;DHT22;47030;50.732;4.286;2022-08-19T00:46:38;18.40;99.30
61153;DHT22;47030;50.732;4.286;2022-08-19T00:49:11;18.40;99.20
61153;DHT22;47030;50.732;4.286;2022-08-19T00:51:40;18.40;99.10
61153;DHT22;47030;50.732;4.286;2022-08-19T00:54:06;18.40;98.90
61153;DHT22;47030;50.732;4.286;2022-08-19T00:56:32;18.40;98.90
61153;DHT22;47030;50.732;4.286;2022-08-19T00:58:59;18.40;98.80
61153;DHT22;47030;50.732;4.286;2022-08-19T01:01:25;18.40;98.70
61153;DHT22;47030;50.732;4.286;2022-08-19T01:03:51;18.30;98.70
61153;DHT22;47030;50.732;4.286;2022-08-19T01:06:17;18.20;99.10
61153;DHT22;47030;50.732;4.286;2022-08-19T01:08:43;18.10;99.30
61153;DHT22;47030;50.732;4.286;2022-08-19T01:11:08;18.10;99.50
61153;DHT22;47030;50.732;4.286;2022-08-19T01:13:35;18.10;99.50
61153;DHT22;47030;50.732;4.286;2022-08-19T01:16:05;18.10;99.40
61153;DHT22;47030;50.732;4.286;2022-08-19T01:18:35;18.00;99.30
61153;DHT22;47030;50.732;4.286;2022-08-19T01:21:08;18.00;99.50
61153;DHT22;47030;50.732;4.286;2022-08-19T01:23:34;18.00;99.70
61153;DHT22;47030;50.732;4.286;2022-08-19T01:26:20;17.90;99.90
61153;DHT22;47030;50.732;4.286;2022-08-19T01:28:48;18.00;99.80
61153;DHT22;47030;50.732;4.286;2022-08-19T01:31:19;17.80;99.70
61153;DHT22;47030;50.732;4.286;2022-08-19T01:33:47;17.90;99.80
61153;DHT22;47030;50.732;4.286;2022-08-19T01:36:22;17.80;99.90
61153;DHT22;47030;50.732;4.286;2022-08-19T01:38:48;17.80;99.90
61153;DHT22;47030;50.732;4.286;2022-08-19T01:41:15;17.70;99.90
61153;DHT22;47030;50.732;4.286;2022-08-19T01:43:42;17.70;99.90
61153;DHT22;47030;50.732;4.286;2022-08-19T01:46:08;17.70;99.90
61153;DHT22;47030;50.732;4.286;2022-08-19T01:48:36;17.70;99.90
61153;DHT22;47030;50.732;4.286;2022-08-19T01:51:02;17.80;99.90
61153;DHT22;47030;50.732;4.286;2022-08-19T01:53:28;17.80;99.90
61153;DHT22;47030;50.732;4.286;2022-08-19T01:55:54;17.80;99.90
61153;DHT22;47030;50.732;4.286;2022-08-19T01:58:24;17.90;99.90
61153;DHT22;47030;50.732;4.286;2022-08-19T02:00:51;18.00;99.90
61153;DHT22;47030;50.732;4.286;2022-08-19T02:03:17;17.90;99.90
61153;DHT22;47030;50.732;4.286;2022-08-19T02:05:43;17.90;99.90
61153;DHT22;47030;50.732;4.286;2022-08-19T02:08:10;17.90;99.90
61153;DHT22;47030;50.732;4.286;2022-08-19T02:10:40;17.90;99.90
61153;DHT22;47030;50.732;4.286;2022-08-19T02:13:06;18.00;99.90
61153;DHT22;47030;50.732;4.286;2022-08-19T02:15:32;17.90;99.90
61153;DHT22;47030;50.732;4.286;2022-08-19T02:17:58;18.00;99.90
61153;DHT22;47030;50.732;4.286;2022-08-19T02:20:24;18.00;99.90
61153;DHT22;47030;50.732;4.286;2022-08-19T02:22:50;18.00;99.90
61153;DHT22;47030;50.732;4.286;2022-08-19T02:25:16;18.10;99.70
61153;DHT22;47030;50.732;4.286;2022-08-19T02:27:43;18.10;99.70
61153;DHT22;47030;50.732;4.286;2022-08-19T02:30:12;18.00;99.60
61153;DHT22;47030;50.732;4.286;2022-08-19T02:32:38;18.00;99.60
61153;DHT22;47030;50.732;4.286;2022-08-19T02:35:04;18.00;99.60
61153;DHT22;47030;50.732;4.286;2022-08-19T02:37:31;17.90;99.60
61153;DHT22;47030;50.732;4.286;2022-08-19T02:40:15;17.90;99.70
61153;DHT22;47030;50.732;4.286;2022-08-19T02:42:43;17.90;99.70
61153;DHT22;47030;50.732;4.286;2022-08-19T02:45:09;18.00;99.50
61153;DHT22;47030;50.732;4.286;2022-08-19T02:47:35;18.00;99.50
61153;DHT22;47030;50.732;4.286;2022-08-19T02:50:02;18.00;99.40
61153;DHT22;47030;50.732;4.286;2022-08-19T02:52:29;18.00;99.40
61153;DHT22;47030;50.732;4.286;2022-08-19T02:54:56;18.00;99.30
61153;DHT22;47030;50.732;4.286;2022-08-19T02:57:23;18.00;99.40
61153;DHT22;47030;50.732;4.286;2022-08-19T02:59:49;18.10;99.30
61153;DHT22;47030;50.732;4.286;2022-08-19T03:02:15;18.10;99.20
61153;DHT22;47030;50.732;4.286;2022-08-19T03:04:41;18.10;99.20
61153;DHT22;47030;50.732;4.286;2022-08-19T03:07:08;18.10;98.90
61153;DHT22;47030;50.732;4.286;2022-08-19T03:09:36;18.00;99.00
61153;DHT22;47030;50.732;4.286;2022-08-19T03:12:03;18.00;99.10
61153;DHT22;47030;50.732;4.286;2022-08-19T03:14:31;18.00;99.10
61153;DHT22;47030;50.732;4.286;2022-08-19T03:16:58;18.00;99.20
61153;DHT22;47030;50.732;4.286;2022-08-19T03:19:24;17.90;99.20
61153;DHT22;47030;50.732;4.286;2022-08-19T03:21:50;17.80;99.50
61153;DHT22;47030;50.732;4.286;2022-08-19T03:24:17;17.90;99.50
61153;DHT22;47030;50.732;4.286;2022-08-19T03:26:49;17.80;99.70
61153;DHT22;47030;50.732;4.286;2022-08-19T03:29:16;17.90;99.70
61153;DHT22;47030;50.732;4.286;2022-08-19T03:31:43;17.80;99.70
61153;DHT22;47030;50.732;4.286;2022-08-19T03:34:17;17.80;99.90
61153;DHT22;47030;50.732;4.286;2022-08-19T03:36:44;17.80;99.90
61153;DHT22;47030;50.732;4.286;2022-08-19T03:39:10;17.80;99.90
61153;DHT22;47030;50.732;4.286;2022-08-19T03:41:39;17.70;99.90
61153;DHT22;47030;50.732;4.286;2022-08-19T03:44:06;17.70;99.90
61153;DHT22;47030;50.732;4.286;2022-08-19T03:46:34;17.70;99.90
61153;DHT22;47030;50.732;4.286;2022-08-19T03:49:03;17.70;99.90
61153;DHT22;47030;50.732;4.286;2022-08-19T03:51:38;17.70;99.90
61153;DHT22;47030;50.732;4.286;2022-08-19T03:54:08;17.70;99.90
61153;DHT22;47030;50.732;4.286;2022-08-19T03:56:36;17.70;99.90
61153;DHT22;47030;50.732;4.286;2022-08-19T03:59:04;17.80;99.90
61153;DHT22;47030;50.732;4.286;2022-08-19T04:01:30;17.80;99.90
61153;DHT22;47030;50.732;4.286;2022-08-19T04:03:57;17.90;99.90
61153;DHT22;47030;50.732;4.286;2022-08-19T04:06:25;18.00;99.60
61153;DHT22;47030;50.732;4.286;2022-08-19T04:08:53;17.90;99.70
61153;DHT22;47030;50.732;4.286;2022-08-19T04:11:27;17.80;99.90
61153;DHT22;47030;50.732;4.286;2022-08-19T04:13:54;17.80;99.90
61153;DHT22;47030;50.732;4.286;2022-08-19T04:16:27;17.70;99.90
61153;DHT22;47030;50.732;4.286;2022-08-19T04:18:59;17.70;99.90
61153;DHT22;47030;50.732;4.286;2022-08-19T04:21:27;17.70;99.90
61153;DHT22;47030;50.732;4.286;2022-08-19T04:23:54;17.70;99.90
61153;DHT22;47030;50.732;4.286;2022-08-19T04:26:25;17.70;99.90
61153;DHT22;47030;50.732;4.286;2022-08-19T04:28:52;17.60;99.90
61153;DHT22;47030;50.732;4.286;2022-08-19T04:31:22;17.60;99.90
61153;DHT22;47030;50.732;4.286;2022-08-19T04:33:48;17.60;99.90
61153;DHT22;47030;50.732;4.286;2022-08-19T04:36:23;17.60;99.90
61153;DHT22;47030;50.732;4.286;2022-08-19T04:38:50;17.50;99.90
61153;DHT22;47030;50.732;4.286;2022-08-19T04:41:18;17.40;99.90
61153;DHT22;47030;50.732;4.286;2022-08-19T04:44:02;17.30;99.90
61153;DHT22;47030;50.732;4.286;2022-08-19T04:46:28;17.30;99.90
61153;DHT22;47030;50.732;4.286;2022-08-19T04:48:55;17.30;99.90
61153;DHT22;47030;50.732;4.286;2022-08-19T04:51:22;17.30;99.90
61153;DHT22;47030;50.732;4.286;2022-08-19T04:53:48;17.20;99.90
61153;DHT22;47030;50.732;4.286;2022-08-19T04:56:16;17.30;99.90
61153;DHT22;47030;50.732;4.286;2022-08-19T04:58:44;17.20;99.90
61153;DHT22;47030;50.732;4.286;2022-08-19T05:01:28;17.30;99.90
61153;DHT22;47030;50.732;4.286;2022-08-19T05:03:55;17.30;99.90
61153;DHT22;47030;50.732;4.286;2022-08-19T05:06:22;17.30;99.90
61153;DHT22;47030;50.732;4.286;2022-08-19T05:08:49;17.30;99.90
61153;DHT22;47030;50.732;4.286;2022-08-19T05:11:27;17.40;99.90
61153;DHT22;47030;50.732;4.286;2022-08-19T05:13:54;17.50;99.90
61153;DHT22;47030;50.732;4.286;2022-08-19T05:16:21;17.70;99.90
61153;DHT22;47030;50.732;4.286;2022-08-19T05:18:48;17.90;99.80
61153;DHT22;47030;50.732;4.286;2022-08-19T05:21:33;18.00;99.40
61153;DHT22;47030;50.732;4.286;2022-08-19T05:24:19;18.10;99.10
61153;DHT22;47030;50.732;4.286;2022-08-19T05:26:48;18.40;98.70
61153;DHT22;47030;50.732;4.286;2022-08-19T05:29:17;18.70;98.10
61153;DHT22;47030;50.732;4.286;2022-08-19T05:31:43;18.90;97.60
61153;DHT22;47030;50.732;4.286;2022-08-19T05:34:10;19.40;96.80
61153;DHT22;47030;50.732;4.286;2022-08-19T05:36:39;19.80;95.90
61153;DHT22;47030;50.732;4.286;2022-08-19T05:39:07;19.80;95.50
61153;DHT22;47030;50.732;4.286;2022-08-19T05:41:33;20.20;95.10
61153;DHT22;47030;50.732;4.286;2022-08-19T05:44:02;21.10;93.50
61153;DHT22;47030;50.732;4.286;2022-08-19T05:46:28;22.00;92.00
61153;DHT22;47030;50.732;4.286;2022-08-19T05:48:54;22.50;90.30
61153;DHT22;47030;50.732;4.286;2022-08-19T05:51:22;22.50;90.10
61153;DHT22;47030;50.732;4.286;2022-08-19T05:53:49;22.10;90.40
61153;DHT22;47030;50.732;4.286;2022-08-19T05:56:16;21.80;91.00
61153;DHT22;47030;50.732;4.286;2022-08-19T05:58:44;21.40;91.70
61153;DHT22;47030;50.732;4.286;2022-08-19T06:01:18;21.30;92.00
61153;DHT22;47030;50.732;4.286;2022-08-19T06:03:44;21.00;92.50
61153;DHT22;47030;50.732;4.286;2022-08-19T06:06:12;20.90;93.00
61153;DHT22;47030;50.732;4.286;2022-08-19T06:08:39;20.70;93.30
61153;DHT22;47030;50.732;4.286;2022-08-19T06:11:18;20.70;93.50
61153;DHT22;47030;50.732;4.286;2022-08-19T06:13:46;20.70;93.90
61153;DHT22;47030;50.732;4.286;2022-08-19T06:16:17;20.80;93.80
61153;DHT22;47030;50.732;4.286;2022-08-19T06:18:51;21.00;93.60
61153;DHT22;47030;50.732;4.286;2022-08-19T06:21:19;21.10;93.40
61153;DHT22;47030;50.732;4.286;2022-08-19T06:23:45;21.30;93.30
61153;DHT22;47030;50.732;4.286;2022-08-19T06:26:14;21.70;92.90
61153;DHT22;47030;50.732;4.286;2022-08-19T06:28:39;22.60;91.50
61153;DHT22;47030;50.732;4.286;2022-08-19T06:31:09;23.60;89.60
61153;DHT22;47030;50.732;4.286;2022-08-19T06:33:35;24.40;86.40
61153;DHT22;47030;50.732;4.286;2022-08-19T06:36:03;25.10;83.50
61153;DHT22;47030;50.732;4.286;2022-08-19T06:38:28;25.80;80.10
61153;DHT22;47030;50.732;4.286;2022-08-19T06:41:04;26.40;78.70
61153;DHT22;47030;50.732;4.286;2022-08-19T06:43:29;26.60;75.60
61153;DHT22;47030;50.732;4.286;2022-08-19T06:45:55;26.20;77.20
61153;DHT22;47030;50.732;4.286;2022-08-19T06:48:21;25.70;77.90
61153;DHT22;47030;50.732;4.286;2022-08-19T06:50:47;25.40;79.20
61153;DHT22;47030;50.732;4.286;2022-08-19T06:53:13;25.40;79.50
61153;DHT22;47030;50.732;4.286;2022-08-19T06:55:39;25.90;78.40
61153;DHT22;47030;50.732;4.286;2022-08-19T06:58:06;26.00;77.90
61153;DHT22;47030;50.732;4.286;2022-08-19T07:00:32;26.10;77.30
61153;DHT22;47030;50.732;4.286;2022-08-19T07:02:59;25.80;77.20
61153;DHT22;47030;50.732;4.286;2022-08-19T07:05:25;25.10;79.80
61153;DHT22;47030;50.732;4.286;2022-08-19T07:07:51;24.60;81.90
61153;DHT22;47030;50.732;4.286;2022-08-19T07:10:17;24.10;83.70
61153;DHT22;47030;50.732;4.286;2022-08-19T07:12:43;23.70;85.50
61153;DHT22;47030;50.732;4.286;2022-08-19T07:15:10;23.40;87.20
61153;DHT22;47030;50.732;4.286;2022-08-19T07:17:37;23.20;88.20
61153;DHT22;47030;50.732;4.286;2022-08-19T07:20:05;23.20;88.90
61153;DHT22;47030;50.732;4.286;2022-08-19T07:22:33;23.10;89.00
61153;DHT22;47030;50.732;4.286;2022-08-19T07:24:59;23.20;89.60
61153;DHT22;47030;50.732;4.286;2022-08-19T07:27:25;23.20;89.40
61153;DHT22;47030;50.732;4.286;2022-08-19T07:29:52;23.40;89.70
61153;DHT22;47030;50.732;4.286;2022-08-19T07:32:18;23.30;89.50
61153;DHT22;47030;50.732;4.286;2022-08-19T07:34:44;23.40;89.40
61153;DHT22;47030;50.732;4.286;2022-08-19T07:37:10;23.60;88.90
61153;DHT22;47030;50.732;4.286;2022-08-19T07:39:37;23.90;88.10
61153;DHT22;47030;50.732;4.286;2022-08-19T07:42:06;24.40;86.60
61153;DHT22;47030;50.732;4.286;2022-08-19T07:44:33;25.00;84.50
61153;DHT22;47030;50.732;4.286;2022-08-19T07:47:00;25.20;84.10
61153;DHT22;47030;50.732;4.286;2022-08-19T07:49:27;25.40;82.70
61153;DHT22;47030;50.732;4.286;2022-08-19T07:51:56;25.30;82.70
61153;DHT22;47030;50.732;4.286;2022-08-19T07:54:23;25.60;82.90
61153;DHT22;47030;50.732;4.286;2022-08-19T07:56:49;25.90;81.10
61153;DHT22;47030;50.732;4.286;2022-08-19T07:59:20;26.20;80.10
61153;DHT22;47030;50.732;4.286;2022-08-19T08:01:46;26.20;79.40
61153;DHT22;47030;50.732;4.286;2022-08-19T08:04:13;26.00;80.10
61153;DHT22;47030;50.732;4.286;2022-08-19T08:06:58;25.50;80.50
61153;DHT22;47030;50.732;4.286;2022-08-19T08:09:43;24.80;82.60
61153;DHT22;47030;50.732;4.286;2022-08-19T08:12:20;24.40;84.50
61153;DHT22;47030;50.732;4.286;2022-08-19T08:14:53;24.30;85.30
61153;DHT22;47030;50.732;4.286;2022-08-19T08:17:21;24.10;86.60
61153;DHT22;47030;50.732;4.286;2022-08-19T08:19:47;24.10;87.10
61153;DHT22;47030;50.732;4.286;2022-08-19T08:22:17;24.10;87.30
61153;DHT22;47030;50.732;4.286;2022-08-19T08:25:07;24.00;87.60
61153;DHT22;47030;50.732;4.286;2022-08-19T08:27:38;24.00;88.90
61153;DHT22;47030;50.732;4.286;2022-08-19T08:30:10;24.20;87.80
61153;DHT22;47030;50.732;4.286;2022-08-19T08:32:38;24.20;87.60
61153;DHT22;47030;50.732;4.286;2022-08-19T08:35:11;24.40;87.60
61153;DHT22;47030;50.732;4.286;2022-08-19T08:37:37;24.50;86.60
61153;DHT22;47030;50.732;4.286;2022-08-19T08:40:09;24.50;87.10
61153;DHT22;47030;50.732;4.286;2022-08-19T08:42:47;24.60;86.50
61153;DHT22;47030;50.732;4.286;2022-08-19T08:45:17;24.60;86.60
61153;DHT22;47030;50.732;4.286;2022-08-19T08:47:47;24.60;86.30
61153;DHT22;47030;50.732;4.286;2022-08-19T08:50:24;24.50;86.80
61153;DHT22;47030;50.732;4.286;2022-08-19T08:52:56;24.40;87.30
61153;DHT22;47030;50.732;4.286;2022-08-19T08:55:26;24.40;87.30
61153;DHT22;47030;50.732;4.286;2022-08-19T08:58:10;24.40;87.80
61153;DHT22;47030;50.732;4.286;2022-08-19T09:00:44;24.30;87.90
61153;DHT22;47030;50.732;4.286;2022-08-19T09:03:17;24.40;88.00
61153;DHT22;47030;50.732;4.286;2022-08-19T09:06:04;24.30;88.30
61153;DHT22;47030;50.732;4.286;2022-08-19T09:14:35;24.30;88.90
61153;DHT22;47030;50.732;4.286;2022-08-19T09:17:04;24.40;88.70
61153;DHT22;47030;50.732;4.286;2022-08-19T09:19:34;24.70;88.30
61153;DHT22;47030;50.732;4.286;2022-08-19T09:22:00;24.80;87.50
61153;DHT22;47030;50.732;4.286;2022-08-19T09:24:26;25.00;87.00
61153;DHT22;47030;50.732;4.286;2022-08-19T09:26:52;24.90;86.80
61153;DHT22;47030;50.732;4.286;2022-08-19T09:29:18;24.70;87.00
61153;DHT22;47030;50.732;4.286;2022-08-19T09:31:44;24.70;87.20
61153;DHT22;47030;50.732;4.286;2022-08-19T09:34:09;24.70;87.60
61153;DHT22;47030;50.732;4.286;2022-08-19T09:36:35;24.90;86.70
61153;DHT22;47030;50.732;4.286;2022-08-19T09:39:05;25.20;85.70
61153;DHT22;47030;50.732;4.286;2022-08-19T09:41:31;25.40;84.90
61153;DHT22;47030;50.732;4.286;2022-08-19T09:43:58;25.40;84.90
61153;DHT22;47030;50.732;4.286;2022-08-19T09:46:26;25.30;85.10
61153;DHT22;47030;50.732;4.286;2022-08-19T09:48:53;25.10;85.50
61153;DHT22;47030;50.732;4.286;2022-08-19T09:51:23;24.90;85.90
61153;DHT22;47030;50.732;4.286;2022-08-19T09:53:50;24.80;87.00
61153;DHT22;47030;50.732;4.286;2022-08-19T09:56:18;24.50;88.00
61153;DHT22;47030;50.732;4.286;2022-08-19T09:58:44;24.30;89.10
61153;DHT22;47030;50.732;4.286;2022-08-19T10:01:20;24.30;90.10
61153;DHT22;47030;50.732;4.286;2022-08-19T10:03:49;24.40;90.20
61153;DHT22;47030;50.732;4.286;2022-08-19T10:06:16;24.40;90.30
61153;DHT22;47030;50.732;4.286;2022-08-19T10:08:41;24.60;90.10
61153;DHT22;47030;50.732;4.286;2022-08-19T10:11:09;24.60;89.70
61153;DHT22;47030;50.732;4.286;2022-08-19T10:13:35;24.70;89.20
61153;DHT22;47030;50.732;4.286;2022-08-19T10:16:05;24.80;89.30
61153;DHT22;47030;50.732;4.286;2022-08-19T10:18:31;24.90;89.50
61153;DHT22;47030;50.732;4.286;2022-08-19T10:21:24;25.00;88.10
61153;DHT22;47030;50.732;4.286;2022-08-19T10:23:52;25.30;87.80
61153;DHT22;47030;50.732;4.286;2022-08-19T10:26:26;25.20;87.10
61153;DHT22;47030;50.732;4.286;2022-08-19T10:28:53;25.20;87.20
61153;DHT22;47030;50.732;4.286;2022-08-19T10:31:21;25.10;86.80
61153;DHT22;47030;50.732;4.286;2022-08-19T10:33:50;25.00;86.90
61153;DHT22;47030;50.732;4.286;2022-08-19T10:36:21;24.90;87.60
61153;DHT22;47030;50.732;4.286;2022-08-19T10:38:50;25.00;87.20
61153;DHT22;47030;50.732;4.286;2022-08-19T10:41:19;25.30;86.80
61153;DHT22;47030;50.732;4.286;2022-08-19T10:43:45;25.30;86.40
61153;DHT22;47030;50.732;4.286;2022-08-19T10:46:13;25.10;86.90
61153;DHT22;47030;50.732;4.286;2022-08-19T10:48:40;24.90;87.90
61153;DHT22;47030;50.732;4.286;2022-08-19T10:51:07;24.80;88.30
61153;DHT22;47030;50.732;4.286;2022-08-19T10:53:51;24.90;88.40
61153;DHT22;47030;50.732;4.286;2022-08-19T10:56:18;25.10;87.50
61153;DHT22;47030;50.732;4.286;2022-08-19T10:59:03;25.40;86.10
61153;DHT22;47030;50.732;4.286;2022-08-19T11:01:30;25.80;85.00
61153;DHT22;47030;50.732;4.286;2022-08-19T11:03:57;26.10;83.60
61153;DHT22;47030;50.732;4.286;2022-08-19T11:06:23;26.30;82.90
61153;DHT22;47030;50.732;4.286;2022-08-19T11:08:53;26.70;81.50
61153;DHT22;47030;50.732;4.286;2022-08-19T11:11:20;26.90;81.00
61153;DHT22;47030;50.732;4.286;2022-08-19T11:13:47;27.10;80.30
61153;DHT22;47030;50.732;4.286;2022-08-19T11:16:16;27.00;79.70
61153;DHT22;47030;50.732;4.286;2022-08-19T11:18:45;26.90;79.40
61153;DHT22;47030;50.732;4.286;2022-08-19T11:21:17;26.90;79.80
61153;DHT22;47030;50.732;4.286;2022-08-19T11:23:45;27.10;79.40
61153;DHT22;47030;50.732;4.286;2022-08-19T11:26:12;27.10;78.70
61153;DHT22;47030;50.732;4.286;2022-08-19T11:28:38;27.00;79.10
61153;DHT22;47030;50.732;4.286;2022-08-19T11:31:04;26.90;79.70
61153;DHT22;47030;50.732;4.286;2022-08-19T11:33:31;26.90;79.50
61153;DHT22;47030;50.732;4.286;2022-08-19T11:35:58;26.80;78.80
61153;DHT22;47030;50.732;4.286;2022-08-19T11:38:26;26.60;80.20
61153;DHT22;47030;50.732;4.286;2022-08-19T11:40:59;26.50;79.90
61153;DHT22;47030;50.732;4.286;2022-08-19T11:43:26;26.50;80.30
61153;DHT22;47030;50.732;4.286;2022-08-19T11:45:53;26.50;80.50
61153;DHT22;47030;50.732;4.286;2022-08-19T11:48:19;26.80;80.40
61153;DHT22;47030;50.732;4.286;2022-08-19T11:50:56;27.40;78.50
61153;DHT22;47030;50.732;4.286;2022-08-19T11:53:22;27.80;76.50
61153;DHT22;47030;50.732;4.286;2022-08-19T11:55:48;28.00;76.10
61153;DHT22;47030;50.732;4.286;2022-08-19T11:58:16;28.00;75.00
61153;DHT22;47030;50.732;4.286;2022-08-19T12:00:43;27.80;75.00
61153;DHT22;47030;50.732;4.286;2022-08-19T12:03:10;27.60;75.90
61153;DHT22;47030;50.732;4.286;2022-08-19T12:05:38;27.60;76.20
61153;DHT22;47030;50.732;4.286;2022-08-19T12:08:04;28.00;75.10
61153;DHT22;47030;50.732;4.286;2022-08-19T12:10:30;28.70;74.50
61153;DHT22;47030;50.732;4.286;2022-08-19T12:12:56;29.40;71.60
61153;DHT22;47030;50.732;4.286;2022-08-19T12:15:22;30.00;70.80
61153;DHT22;47030;50.732;4.286;2022-08-19T12:17:47;30.40;68.80
61153;DHT22;47030;50.732;4.286;2022-08-19T12:20:13;30.60;67.20
61153;DHT22;47030;50.732;4.286;2022-08-19T12:22:41;30.60;67.30
61153;DHT22;47030;50.732;4.286;2022-08-19T12:25:08;30.70;67.00
61153;DHT22;47030;50.732;4.286;2022-08-19T12:27:34;30.70;67.00
61153;DHT22;47030;50.732;4.286;2022-08-19T12:30:01;30.70;65.90
61153;DHT22;47030;50.732;4.286;2022-08-19T12:32:27;30.50;66.20
61153;DHT22;47030;50.732;4.286;2022-08-19T12:34:53;30.50;66.10
61153;DHT22;47030;50.732;4.286;2022-08-19T12:37:20;30.50;65.10
61153;DHT22;47030;50.732;4.286;2022-08-19T12:39:45;30.60;65.40
61153;DHT22;47030;50.732;4.286;2022-08-19T12:42:12;30.50;65.50
61153;DHT22;47030;50.732;4.286;2022-08-19T12:44:40;30.50;65.30
61153;DHT22;47030;50.732;4.286;2022-08-19T12:47:07;30.40;65.30
61153;DHT22;47030;50.732;4.286;2022-08-19T12:49:33;30.40;65.30
61153;DHT22;47030;50.732;4.286;2022-08-19T12:52:00;30.60;65.40
61153;DHT22;47030;50.732;4.286;2022-08-19T12:54:27;30.80;63.80
61153;DHT22;47030;50.732;4.286;2022-08-19T12:56:53;30.90;64.50
61153;DHT22;47030;50.732;4.286;2022-08-19T12:59:19;30.90;64.30
61153;DHT22;47030;50.732;4.286;2022-08-19T13:01:45;30.80;63.10
61153;DHT22;47030;50.732;4.286;2022-08-19T13:04:11;30.60;63.10
61153;DHT22;47030;50.732;4.286;2022-08-19T13:06:37;30.40;64.60
61153;DHT22;47030;50.732;4.286;2022-08-19T13:09:06;30.10;66.00
61153;DHT22;47030;50.732;4.286;2022-08-19T13:11:31;29.90;65.90
61153;DHT22;47030;50.732;4.286;2022-08-19T13:14:01;29.60;66.60
61153;DHT22;47030;50.732;4.286;2022-08-19T13:16:28;29.30;67.20
61153;DHT22;47030;50.732;4.286;2022-08-19T13:18:55;29.10;67.80
61153;DHT22;47030;50.732;4.286;2022-08-19T13:21:24;28.90;68.70
61153;DHT22;47030;50.732;4.286;2022-08-19T13:23:51;28.90;68.60
61153;DHT22;47030;50.732;4.286;2022-08-19T13:26:17;28.80;68.20
61153;DHT22;47030;50.732;4.286;2022-08-19T13:28:44;28.80;68.10
61153;DHT22;47030;50.732;4.286;2022-08-19T13:31:32;28.90;68.00
61153;DHT22;47030;50.732;4.286;2022-08-19T13:34:19;28.90;68.60
61153;DHT22;47030;50.732;4.286;2022-08-19T13:36:46;29.10;68.70
61153;DHT22;47030;50.732;4.286;2022-08-19T13:39:12;29.30;67.70
61153;DHT22;47030;50.732;4.286;2022-08-19T13:41:44;29.30;67.20
61153;DHT22;47030;50.732;4.286;2022-08-19T13:44:13;29.20;67.60
61153;DHT22;47030;50.732;4.286;2022-08-19T13:46:39;28.90;68.00
61153;DHT22;47030;50.732;4.286;2022-08-19T13:49:05;28.80;68.30
61153;DHT22;47030;50.732;4.286;2022-08-19T13:51:30;28.70;68.70
61153;DHT22;47030;50.732;4.286;2022-08-19T13:53:56;28.50;69.30
61153;DHT22;47030;50.732;4.286;2022-08-19T13:56:22;28.40;70.00
61153;DHT22;47030;50.732;4.286;2022-08-19T13:58:48;27.90;72.00
61153;DHT22;47030;50.732;4.286;2022-08-19T14:01:21;27.40;75.20
61153;DHT22;47030;50.732;4.286;2022-08-19T14:03:47;26.80;80.20
61153;DHT22;47030;50.732;4.286;2022-08-19T14:06:13;26.30;81.80
61153;DHT22;47030;50.732;4.286;2022-08-19T14:08:39;26.00;84.80
61153;DHT22;47030;50.732;4.286;2022-08-19T14:11:07;25.60;87.30
61153;DHT22;47030;50.732;4.286;2022-08-19T14:13:33;25.50;89.30
61153;DHT22;47030;50.732;4.286;2022-08-19T14:15:59;25.60;88.70
61153;DHT22;47030;50.732;4.286;2022-08-19T14:18:25;25.70;89.40
61153;DHT22;47030;50.732;4.286;2022-08-19T14:20:51;25.30;89.20
61153;DHT22;47030;50.732;4.286;2022-08-19T14:23:17;25.20;90.50
61153;DHT22;47030;50.732;4.286;2022-08-19T14:25:44;25.50;90.40
61153;DHT22;47030;50.732;4.286;2022-08-19T14:28:10;25.90;90.30
61153;DHT22;47030;50.732;4.286;2022-08-19T14:30:38;26.10;89.10
61153;DHT22;47030;50.732;4.286;2022-08-19T14:33:06;26.20;88.60
61153;DHT22;47030;50.732;4.286;2022-08-19T14:35:34;26.50;88.60
61153;DHT22;47030;50.732;4.286;2022-08-19T14:38:00;26.80;87.30
61153;DHT22;47030;50.732;4.286;2022-08-19T14:40:27;27.00;85.90
61153;DHT22;47030;50.732;4.286;2022-08-19T14:42:55;27.30;86.70
61153;DHT22;47030;50.732;4.286;2022-08-19T14:45:25;27.60;86.00
61153;DHT22;47030;50.732;4.286;2022-08-19T14:47:51;27.60;85.30
61153;DHT22;47030;50.732;4.286;2022-08-19T14:50:18;27.90;85.00
61153;DHT22;47030;50.732;4.286;2022-08-19T14:52:48;27.90;84.00
61153;DHT22;47030;50.732;4.286;2022-08-19T14:55:16;27.70;82.90
61153;DHT22;47030;50.732;4.286;2022-08-19T14:57:43;27.20;83.00
61153;DHT22;47030;50.732;4.286;2022-08-19T15:00:10;27.00;83.70
61153;DHT22;47030;50.732;4.286;2022-08-19T15:02:40;26.70;84.20
61153;DHT22;47030;50.732;4.286;2022-08-19T15:05:06;26.40;85.90
61153;DHT22;47030;50.732;4.286;2022-08-19T15:07:32;26.10;86.60
61153;DHT22;47030;50.732;4.286;2022-08-19T15:09:58;25.80;86.40
61153;DHT22;47030;50.732;4.286;2022-08-19T15:12:24;25.80;86.50
61153;DHT22;47030;50.732;4.286;2022-08-19T15:14:50;25.70;86.80
61153;DHT22;47030;50.732;4.286;2022-08-19T15:17:17;25.70;86.80
61153;DHT22;47030;50.732;4.286;2022-08-19T15:19:43;25.70;86.90
61153;DHT22;47030;50.732;4.286;2022-08-19T15:22:08;25.80;86.20
61153;DHT22;47030;50.732;4.286;2022-08-19T15:24:35;25.90;86.00
61153;DHT22;47030;50.732;4.286;2022-08-19T15:27:02;26.00;86.00
61153;DHT22;47030;50.732;4.286;2022-08-19T15:29:28;26.10;85.70
61153;DHT22;47030;50.732;4.286;2022-08-19T15:31:54;26.30;85.50
61153;DHT22;47030;50.732;4.286;2022-08-19T15:34:24;26.70;84.90
61153;DHT22;47030;50.732;4.286;2022-08-19T15:36:51;27.10;83.50
61153;DHT22;47030;50.732;4.286;2022-08-19T15:39:17;27.30;82.40
61153;DHT22;47030;50.732;4.286;2022-08-19T15:41:44;27.60;81.30
61153;DHT22;47030;50.732;4.286;2022-08-19T15:44:16;27.70;79.30